sensor_id;sensor_type;location;lat;lon;timestamp;P1;durP1;ratioP1;P2;durP2;ratioP2
36931;SDS011;22847;42.654;23.370;2024-02-26T00:02:17;15.23;;;8.38;;
36931;SDS011;22847;42.654;23.370;2024-02-26T00:04:43;31.75;;;16.88;;
36931;SDS011;22847;42.654;23.370;2024-02-26T00:07:08;15.18;;;8.88;;
36931;SDS011;22847;42.654;23.370;2024-02-26T00:09:34;18.05;;;8.30;;
36931;SDS011;22847;42.654;23.370;2024-02-26T00:12:04;19.88;;;9.57;;
36931;SDS011;22847;42.654;23.370;2024-02-26T00:14:30;17.23;;;9.85;;
36931;SDS011;22847;42.654;23.370;2024-02-26T00:16:56;15.82;;;9.60;;
36931;SDS011;22847;42.654;23.370;2024-02-26T00:19:22;17.85;;;8.63;;
36931;SDS011;22847;42.654;23.370;2024-02-26T00:21:47;16.85;;;8.80;;
36931;SDS011;22847;42.654;23.370;2024-02-26T00:24:13;15.63;;;8.07;;
36931;SDS011;22847;42.654;23.370;2024-02-26T00:26:39;15.55;;;8.88;;
36931;SDS011;22847;42.654;23.370;2024-02-26T00:29:04;20.58;;;10.32;;
36931;SDS011;22847;42.654;23.370;2024-02-26T00:31:30;17.00;;;9.98;;
36931;SDS011;22847;42.654;23.370;2024-02-26T00:33:56;19.73;;;10.48;;
36931;SDS011;22847;42.654;23.370;2024-02-26T00:36:21;21.05;;;10.75;;
36931;SDS011;22847;42.654;23.370;2024-02-26T00:38:47;16.90;;;10.20;;
36931;SDS011;22847;42.654;23.370;2024-02-26T00:41:19;23.88;;;11.52;;
36931;SDS011;22847;42.654;23.370;2024-02-26T00:43:45;18.85;;;10.85;;
36931;SDS011;22847;42.654;23.370;2024-02-26T00:46:11;20.40;;;10.35;;
36931;SDS011;22847;42.654;23.370;2024-02-26T00:48:37;21.42;;;10.93;;
36931;SDS011;22847;42.654;23.370;2024-02-26T00:51:02;18.75;;;10.65;;
36931;SDS011;22847;42.654;23.370;2024-02-26T00:53:30;23.15;;;10.45;;
36931;SDS011;22847;42.654;23.370;2024-02-26T00:55:56;16.13;;;9.90;;
36931;SDS011;22847;42.654;23.370;2024-02-26T00:58:23;19.33;;;10.65;;
36931;SDS011;22847;42.654;23.370;2024-02-26T01:00:49;21.50;;;10.98;;
36931;SDS011;22847;42.654;23.370;2024-02-26T01:03:14;17.10;;;10.30;;
36931;SDS011;22847;42.654;23.370;2024-02-26T01:05:40;19.35;;;10.15;;
36931;SDS011;22847;42.654;23.370;2024-02-26T01:08:05;21.80;;;10.93;;
36931;SDS011;22847;42.654;23.370;2024-02-26T01:10:31;25.30;;;9.88;;
36931;SDS011;22847;42.654;23.370;2024-02-26T01:12:56;19.85;;;11.07;;
36931;SDS011;22847;42.654;23.370;2024-02-26T01:15:22;20.55;;;10.23;;
36931;SDS011;22847;42.654;23.370;2024-02-26T01:17:49;22.55;;;11.50;;
36931;SDS011;22847;42.654;23.370;2024-02-26T01:20:16;20.83;;;10.38;;
36931;SDS011;22847;42.654;23.370;2024-02-26T01:22:42;18.33;;;10.77;;
36931;SDS011;22847;42.654;23.370;2024-02-26T01:25:09;17.98;;;10.02;;
36931;SDS011;22847;42.654;23.370;2024-02-26T01:27:35;19.33;;;10.50;;
36931;SDS011;22847;42.654;23.370;2024-02-26T01:30:03;20.23;;;10.60;;
36931;SDS011;22847;42.654;23.370;2024-02-26T01:32:29;21.20;;;10.85;;
36931;SDS011;22847;42.654;23.370;2024-02-26T01:34:55;23.13;;;10.75;;
36931;SDS011;22847;42.654;23.370;2024-02-26T01:37:21;21.80;;;10.63;;
36931;SDS011;22847;42.654;23.370;2024-02-26T01:39:46;21.25;;;11.52;;
36931;SDS011;22847;42.654;23.370;2024-02-26T01:42:12;33.13;;;18.33;;
36931;SDS011;22847;42.654;23.370;2024-02-26T01:44:37;37.75;;;21.27;;
36931;SDS011;22847;42.654;23.370;2024-02-26T01:47:03;55.85;;;25.65;;
36931;SDS011;22847;42.654;23.370;2024-02-26T01:49:30;51.13;;;22.67;;
36931;SDS011;22847;42.654;23.370;2024-02-26T01:51:56;55.92;;;23.52;;
36931;SDS011;22847;42.654;23.370;2024-02-26T01:54:23;43.08;;;21.70;;
36931;SDS011;22847;42.654;23.370;2024-02-26T01:56:49;48.63;;;20.98;;
36931;SDS011;22847;42.654;23.370;2024-02-26T01:59:16;58.33;;;23.42;;
36931;SDS011;22847;42.654;23.370;2024-02-26T02:01:42;49.38;;;20.70;;
36931;SDS011;22847;42.654;23.370;2024-02-26T02:04:13;56.20;;;22.15;;
36931;SDS011;22847;42.654;23.370;2024-02-26T02:06:39;44.75;;;21.70;;
36931;SDS011;22847;42.654;23.370;2024-02-26T02:09:08;49.58;;;22.25;;
36931;SDS011;22847;42.654;23.370;2024-02-26T02:11:34;46.25;;;22.98;;
36931;SDS011;22847;42.654;23.370;2024-02-26T02:13:59;58.83;;;24.17;;
36931;SDS011;22847;42.654;23.370;2024-02-26T02:16:25;54.03;;;23.63;;
36931;SDS011;22847;42.654;23.370;2024-02-26T02:18:50;52.55;;;24.52;;
36931;SDS011;22847;42.654;23.370;2024-02-26T02:21:16;48.10;;;22.05;;
36931;SDS011;22847;42.654;23.370;2024-02-26T02:23:41;48.15;;;21.40;;
36931;SDS011;22847;42.654;23.370;2024-02-26T02:26:11;48.05;;;21.17;;
36931;SDS011;22847;42.654;23.370;2024-02-26T02:28:38;42.83;;;20.05;;
36931;SDS011;22847;42.654;23.370;2024-02-26T02:31:05;31.90;;;17.45;;
36931;SDS011;22847;42.654;23.370;2024-02-26T02:33:31;30.55;;;16.65;;
36931;SDS011;22847;42.654;23.370;2024-02-26T02:35:57;35.47;;;17.83;;
36931;SDS011;22847;42.654;23.370;2024-02-26T02:38:23;37.33;;;18.80;;
36931;SDS011;22847;42.654;23.370;2024-02-26T02:40:51;30.90;;;16.55;;
36931;SDS011;22847;42.654;23.370;2024-02-26T02:43:17;35.03;;;17.02;;
36931;SDS011;22847;42.654;23.370;2024-02-26T02:45:42;29.67;;;16.65;;
36931;SDS011;22847;42.654;23.370;2024-02-26T02:48:08;28.17;;;16.42;;
36931;SDS011;22847;42.654;23.370;2024-02-26T02:50:33;35.05;;;15.48;;
36931;SDS011;22847;42.654;23.370;2024-02-26T02:52:59;30.45;;;16.45;;
36931;SDS011;22847;42.654;23.370;2024-02-26T02:55:24;28.33;;;14.70;;
36931;SDS011;22847;42.654;23.370;2024-02-26T02:57:50;25.45;;;14.48;;
36931;SDS011;22847;42.654;23.370;2024-02-26T03:00:16;25.15;;;12.20;;
36931;SDS011;22847;42.654;23.370;2024-02-26T03:02:41;26.23;;;14.10;;
36931;SDS011;22847;42.654;23.370;2024-02-26T03:05:08;23.40;;;14.10;;
36931;SDS011;22847;42.654;23.370;2024-02-26T03:07:33;26.38;;;15.13;;
36931;SDS011;22847;42.654;23.370;2024-02-26T03:09:59;24.20;;;15.07;;
36931;SDS011;22847;42.654;23.370;2024-02-26T03:12:24;26.30;;;14.38;;
36931;SDS011;22847;42.654;23.370;2024-02-26T03:14:50;26.13;;;14.88;;
36931;SDS011;22847;42.654;23.370;2024-02-26T03:17:16;24.92;;;14.20;;
36931;SDS011;22847;42.654;23.370;2024-02-26T03:19:43;28.88;;;14.85;;
36931;SDS011;22847;42.654;23.370;2024-02-26T03:22:11;28.77;;;15.48;;
36931;SDS011;22847;42.654;23.370;2024-02-26T03:24:37;31.67;;;15.48;;
36931;SDS011;22847;42.654;23.370;2024-02-26T03:27:03;24.58;;;15.52;;
36931;SDS011;22847;42.654;23.370;2024-02-26T03:29:34;27.08;;;16.65;;
36931;SDS011;22847;42.654;23.370;2024-02-26T03:32:00;28.75;;;15.95;;
36931;SDS011;22847;42.654;23.370;2024-02-26T03:34:25;28.30;;;16.15;;
36931;SDS011;22847;42.654;23.370;2024-02-26T03:36:51;31.20;;;16.65;;
36931;SDS011;22847;42.654;23.370;2024-02-26T03:39:17;29.35;;;16.63;;
36931;SDS011;22847;42.654;23.370;2024-02-26T03:41:42;31.23;;;16.02;;
36931;SDS011;22847;42.654;23.370;2024-02-26T03:44:08;30.33;;;15.50;;
36931;SDS011;22847;42.654;23.370;2024-02-26T03:46:33;25.85;;;15.95;;
36931;SDS011;22847;42.654;23.370;2024-02-26T03:48:59;27.00;;;15.13;;
36931;SDS011;22847;42.654;23.370;2024-02-26T03:51:24;27.60;;;15.57;;
36931;SDS011;22847;42.654;23.370;2024-02-26T03:53:50;27.42;;;15.48;;
36931;SDS011;22847;42.654;23.370;2024-02-26T03:56:15;33.08;;;16.73;;
36931;SDS011;22847;42.654;23.370;2024-02-26T03:58:41;27.98;;;16.38;;
36931;SDS011;22847;42.654;23.370;2024-02-26T04:01:07;29.58;;;16.65;;
36931;SDS011;22847;42.654;23.370;2024-02-26T04:03:34;26.77;;;16.42;;
36931;SDS011;22847;42.654;23.370;2024-02-26T04:06:00;36.90;;;16.65;;
36931;SDS011;22847;42.654;23.370;2024-02-26T04:08:25;35.67;;;18.17;;
36931;SDS011;22847;42.654;23.370;2024-02-26T04:10:51;32.92;;;18.02;;
36931;SDS011;22847;42.654;23.370;2024-02-26T04:13:17;33.38;;;16.35;;
36931;SDS011;22847;42.654;23.370;2024-02-26T04:15:42;24.92;;;14.80;;
36931;SDS011;22847;42.654;23.370;2024-02-26T04:18:08;23.73;;;12.25;;
36931;SDS011;22847;42.654;23.370;2024-02-26T04:20:34;19.17;;;11.60;;
36931;SDS011;22847;42.654;23.370;2024-02-26T04:22:59;20.35;;;10.98;;
36931;SDS011;22847;42.654;23.370;2024-02-26T04:25:24;17.08;;;10.90;;
36931;SDS011;22847;42.654;23.370;2024-02-26T04:27:50;18.83;;;11.63;;
36931;SDS011;22847;42.654;23.370;2024-02-26T04:30:15;17.98;;;10.63;;
36931;SDS011;22847;42.654;23.370;2024-02-26T04:32:42;17.70;;;10.18;;
36931;SDS011;22847;42.654;23.370;2024-02-26T04:35:07;16.67;;;9.90;;
36931;SDS011;22847;42.654;23.370;2024-02-26T04:37:33;19.27;;;9.75;;
36931;SDS011;22847;42.654;23.370;2024-02-26T04:39:59;18.98;;;9.75;;
36931;SDS011;22847;42.654;23.370;2024-02-26T04:42:26;22.13;;;9.65;;
36931;SDS011;22847;42.654;23.370;2024-02-26T04:44:51;19.52;;;9.77;;
36931;SDS011;22847;42.654;23.370;2024-02-26T04:47:17;17.52;;;10.90;;
36931;SDS011;22847;42.654;23.370;2024-02-26T04:49:42;20.42;;;11.15;;
36931;SDS011;22847;42.654;23.370;2024-02-26T04:52:08;17.75;;;10.45;;
36931;SDS011;22847;42.654;23.370;2024-02-26T04:54:33;17.45;;;10.57;;
36931;SDS011;22847;42.654;23.370;2024-02-26T04:56:59;20.35;;;10.05;;
36931;SDS011;22847;42.654;23.370;2024-02-26T04:59:24;21.55;;;11.68;;
36931;SDS011;22847;42.654;23.370;2024-02-26T05:01:50;22.08;;;11.02;;
36931;SDS011;22847;42.654;23.370;2024-02-26T05:04:18;25.20;;;12.38;;
36931;SDS011;22847;42.654;23.370;2024-02-26T05:06:43;21.80;;;12.82;;
36931;SDS011;22847;42.654;23.370;2024-02-26T05:09:09;22.17;;;12.02;;
36931;SDS011;22847;42.654;23.370;2024-02-26T05:11:34;29.63;;;13.60;;
36931;SDS011;22847;42.654;23.370;2024-02-26T05:14:00;23.63;;;12.82;;
36931;SDS011;22847;42.654;23.370;2024-02-26T05:16:26;29.55;;;14.32;;
36931;SDS011;22847;42.654;23.370;2024-02-26T05:18:52;27.45;;;13.95;;
36931;SDS011;22847;42.654;23.370;2024-02-26T05:21:18;26.88;;;14.73;;
36931;SDS011;22847;42.654;23.370;2024-02-26T05:23:43;25.25;;;15.80;;
36931;SDS011;22847;42.654;23.370;2024-02-26T05:26:10;27.25;;;16.23;;
36931;SDS011;22847;42.654;23.370;2024-02-26T05:28:36;28.08;;;15.55;;
36931;SDS011;22847;42.654;23.370;2024-02-26T05:31:04;30.67;;;16.85;;
36931;SDS011;22847;42.654;23.370;2024-02-26T05:33:30;29.20;;;15.57;;
36931;SDS011;22847;42.654;23.370;2024-02-26T05:36:22;33.30;;;18.10;;
36931;SDS011;22847;42.654;23.370;2024-02-26T05:38:48;35.58;;;19.33;;
36931;SDS011;22847;42.654;23.370;2024-02-26T05:41:17;31.25;;;18.27;;
36931;SDS011;22847;42.654;23.370;2024-02-26T05:43:51;46.67;;;25.70;;
36931;SDS011;22847;42.654;23.370;2024-02-26T05:46:17;40.15;;;18.55;;
36931;SDS011;22847;42.654;23.370;2024-02-26T05:48:44;28.70;;;16.73;;
36931;SDS011;22847;42.654;23.370;2024-02-26T05:51:12;26.30;;;16.35;;
36931;SDS011;22847;42.654;23.370;2024-02-26T05:53:37;28.10;;;16.70;;
36931;SDS011;22847;42.654;23.370;2024-02-26T05:56:03;34.25;;;17.17;;
36931;SDS011;22847;42.654;23.370;2024-02-26T05:58:28;25.40;;;16.25;;
36931;SDS011;22847;42.654;23.370;2024-02-26T06:00:54;28.52;;;16.13;;
36931;SDS011;22847;42.654;23.370;2024-02-26T06:03:19;34.38;;;17.90;;
36931;SDS011;22847;42.654;23.370;2024-02-26T06:05:45;26.77;;;17.15;;
36931;SDS011;22847;42.654;23.370;2024-02-26T06:08:11;27.85;;;15.48;;
36931;SDS011;22847;42.654;23.370;2024-02-26T06:10:37;29.02;;;15.73;;
36931;SDS011;22847;42.654;23.370;2024-02-26T06:13:04;32.40;;;16.98;;
36931;SDS011;22847;42.654;23.370;2024-02-26T06:15:29;29.88;;;16.15;;
36931;SDS011;22847;42.654;23.370;2024-02-26T06:17:55;21.70;;;14.52;;
36931;SDS011;22847;42.654;23.370;2024-02-26T06:20:20;26.45;;;13.70;;
36931;SDS011;22847;42.654;23.370;2024-02-26T06:22:46;25.98;;;14.45;;
36931;SDS011;22847;42.654;23.370;2024-02-26T06:25:11;28.08;;;15.27;;
36931;SDS011;22847;42.654;23.370;2024-02-26T06:27:37;22.77;;;12.90;;
36931;SDS011;22847;42.654;23.370;2024-02-26T06:30:02;22.52;;;12.43;;
36931;SDS011;22847;42.654;23.370;2024-02-26T06:32:28;20.50;;;12.65;;
36931;SDS011;22847;42.654;23.370;2024-02-26T06:34:54;22.10;;;12.18;;
36931;SDS011;22847;42.654;23.370;2024-02-26T06:37:20;24.80;;;12.43;;
36931;SDS011;22847;42.654;23.370;2024-02-26T06:39:45;20.35;;;12.18;;
36931;SDS011;22847;42.654;23.370;2024-02-26T06:42:13;18.55;;;11.68;;
36931;SDS011;22847;42.654;23.370;2024-02-26T06:44:38;21.75;;;12.68;;
36931;SDS011;22847;42.654;23.370;2024-02-26T06:47:04;25.60;;;11.93;;
36931;SDS011;22847;42.654;23.370;2024-02-26T06:49:29;20.95;;;11.57;;
36931;SDS011;22847;42.654;23.370;2024-02-26T06:51:55;25.90;;;12.88;;
36931;SDS011;22847;42.654;23.370;2024-02-26T06:54:20;25.13;;;12.02;;
36931;SDS011;22847;42.654;23.370;2024-02-26T06:56:46;25.65;;;13.15;;
36931;SDS011;22847;42.654;23.370;2024-02-26T06:59:12;27.55;;;13.18;;
36931;SDS011;22847;42.654;23.370;2024-02-26T07:01:39;30.63;;;14.30;;
36931;SDS011;22847;42.654;23.370;2024-02-26T07:04:06;23.92;;;12.80;;
36931;SDS011;22847;42.654;23.370;2024-02-26T07:06:31;27.42;;;12.75;;
36931;SDS011;22847;42.654;23.370;2024-02-26T07:08:57;20.92;;;12.73;;
36931;SDS011;22847;42.654;23.370;2024-02-26T07:11:22;21.58;;;12.25;;
36931;SDS011;22847;42.654;23.370;2024-02-26T07:13:48;22.30;;;12.25;;
36931;SDS011;22847;42.654;23.370;2024-02-26T07:16:14;23.23;;;11.98;;
36931;SDS011;22847;42.654;23.370;2024-02-26T07:18:40;26.17;;;11.85;;
36931;SDS011;22847;42.654;23.370;2024-02-26T07:21:06;20.13;;;10.93;;
36931;SDS011;22847;42.654;23.370;2024-02-26T07:23:31;20.77;;;11.52;;
36931;SDS011;22847;42.654;23.370;2024-02-26T07:25:57;24.10;;;10.77;;
36931;SDS011;22847;42.654;23.370;2024-02-26T07:28:24;17.50;;;11.10;;
36931;SDS011;22847;42.654;23.370;2024-02-26T07:30:50;24.35;;;11.13;;
36931;SDS011;22847;42.654;23.370;2024-02-26T07:33:16;19.88;;;11.13;;
36931;SDS011;22847;42.654;23.370;2024-02-26T07:35:41;22.27;;;11.80;;
36931;SDS011;22847;42.654;23.370;2024-02-26T07:38:07;22.30;;;12.68;;
36931;SDS011;22847;42.654;23.370;2024-02-26T07:40:32;24.63;;;12.73;;
36931;SDS011;22847;42.654;23.370;2024-02-26T07:42:58;32.10;;;13.98;;
36931;SDS011;22847;42.654;23.370;2024-02-26T07:45:23;23.73;;;12.18;;
36931;SDS011;22847;42.654;23.370;2024-02-26T07:47:49;19.48;;;11.25;;
36931;SDS011;22847;42.654;23.370;2024-02-26T07:50:16;20.88;;;11.77;;
36931;SDS011;22847;42.654;23.370;2024-02-26T07:52:42;23.60;;;11.95;;
36931;SDS011;22847;42.654;23.370;2024-02-26T07:55:07;22.40;;;11.45;;
36931;SDS011;22847;42.654;23.370;2024-02-26T07:57:33;32.38;;;11.32;;
36931;SDS011;22847;42.654;23.370;2024-02-26T07:59:59;24.33;;;11.90;;
36931;SDS011;22847;42.654;23.370;2024-02-26T08:02:24;19.40;;;8.52;;
36931;SDS011;22847;42.654;23.370;2024-02-26T08:04:50;17.73;;;9.90;;
36931;SDS011;22847;42.654;23.370;2024-02-26T08:07:16;21.02;;;11.18;;
36931;SDS011;22847;42.654;23.370;2024-02-26T08:09:41;13.85;;;9.18;;
36931;SDS011;22847;42.654;23.370;2024-02-26T08:12:07;14.73;;;8.00;;
36931;SDS011;22847;42.654;23.370;2024-02-26T08:14:32;11.80;;;8.18;;
36931;SDS011;22847;42.654;23.370;2024-02-26T08:16:58;16.70;;;7.55;;
36931;SDS011;22847;42.654;23.370;2024-02-26T08:19:24;16.33;;;9.48;;
36931;SDS011;22847;42.654;23.370;2024-02-26T08:21:51;31.13;;;13.13;;
36931;SDS011;22847;42.654;23.370;2024-02-26T08:24:17;31.85;;;14.35;;
36931;SDS011;22847;42.654;23.370;2024-02-26T08:26:42;27.45;;;14.13;;
36931;SDS011;22847;42.654;23.370;2024-02-26T08:29:07;20.83;;;10.13;;
36931;SDS011;22847;42.654;23.370;2024-02-26T08:31:33;16.48;;;9.75;;
36931;SDS011;22847;42.654;23.370;2024-02-26T08:34:01;17.23;;;9.35;;
36931;SDS011;22847;42.654;23.370;2024-02-26T08:36:28;14.93;;;7.70;;
36931;SDS011;22847;42.654;23.370;2024-02-26T08:38:53;12.27;;;7.20;;
36931;SDS011;22847;42.654;23.370;2024-02-26T08:41:19;20.67;;;7.55;;
36931;SDS011;22847;42.654;23.370;2024-02-26T08:43:44;14.15;;;7.78;;
36931;SDS011;22847;42.654;23.370;2024-02-26T08:46:10;14.30;;;7.45;;
36931;SDS011;22847;42.654;23.370;2024-02-26T08:48:38;15.75;;;7.95;;
36931;SDS011;22847;42.654;23.370;2024-02-26T08:51:07;14.23;;;8.00;;
36931;SDS011;22847;42.654;23.370;2024-02-26T08:53:33;14.07;;;7.38;;
36931;SDS011;22847;42.654;23.370;2024-02-26T08:55:59;15.77;;;8.63;;
36931;SDS011;22847;42.654;23.370;2024-02-26T08:58:25;12.85;;;7.25;;
36931;SDS011;22847;42.654;23.370;2024-02-26T09:00:52;15.48;;;8.40;;
36931;SDS011;22847;42.654;23.370;2024-02-26T09:03:17;17.13;;;8.25;;
36931;SDS011;22847;42.654;23.370;2024-02-26T09:05:43;16.60;;;9.25;;
36931;SDS011;22847;42.654;23.370;2024-02-26T09:08:08;20.45;;;9.38;;
36931;SDS011;22847;42.654;23.370;2024-02-26T09:10:34;16.40;;;8.32;;
36931;SDS011;22847;42.654;23.370;2024-02-26T09:12:59;16.88;;;9.73;;
36931;SDS011;22847;42.654;23.370;2024-02-26T09:15:25;15.85;;;9.25;;
36931;SDS011;22847;42.654;23.370;2024-02-26T09:17:50;16.15;;;9.25;;
36931;SDS011;22847;42.654;23.370;2024-02-26T09:20:17;13.93;;;7.63;;
36931;SDS011;22847;42.654;23.370;2024-02-26T09:22:46;11.50;;;6.43;;
36931;SDS011;22847;42.654;23.370;2024-02-26T09:25:12;16.58;;;6.10;;
36931;SDS011;22847;42.654;23.370;2024-02-26T09:27:38;10.27;;;6.38;;
36931;SDS011;22847;42.654;23.370;2024-02-26T09:30:04;11.20;;;6.90;;
36931;SDS011;22847;42.654;23.370;2024-02-26T09:32:29;13.70;;;6.47;;
36931;SDS011;22847;42.654;23.370;2024-02-26T09:34:55;12.43;;;7.53;;
36931;SDS011;22847;42.654;23.370;2024-02-26T09:37:21;9.68;;;6.43;;
36931;SDS011;22847;42.654;23.370;2024-02-26T09:39:46;16.25;;;6.20;;
36931;SDS011;22847;42.654;23.370;2024-02-26T09:42:12;15.77;;;6.25;;
36931;SDS011;22847;42.654;23.370;2024-02-26T09:44:39;14.77;;;7.55;;
36931;SDS011;22847;42.654;23.370;2024-02-26T09:47:08;14.70;;;7.55;;
36931;SDS011;22847;42.654;23.370;2024-02-26T09:49:35;16.33;;;6.65;;
36931;SDS011;22847;42.654;23.370;2024-02-26T09:52:02;8.75;;;6.85;;
36931;SDS011;22847;42.654;23.370;2024-02-26T09:54:29;10.00;;;7.10;;
36931;SDS011;22847;42.654;23.370;2024-02-26T09:56:58;10.20;;;6.47;;
36931;SDS011;22847;42.654;23.370;2024-02-26T09:59:26;12.02;;;6.68;;
36931;SDS011;22847;42.654;23.370;2024-02-26T10:01:53;12.48;;;6.93;;
36931;SDS011;22847;42.654;23.370;2024-02-26T10:04:19;12.63;;;6.75;;
36931;SDS011;22847;42.654;23.370;2024-02-26T10:06:45;10.82;;;7.03;;
36931;SDS011;22847;42.654;23.370;2024-02-26T10:09:12;10.52;;;6.65;;
36931;SDS011;22847;42.654;23.370;2024-02-26T10:11:37;12.70;;;7.07;;
36931;SDS011;22847;42.654;23.370;2024-02-26T10:14:05;9.77;;;6.32;;
36931;SDS011;22847;42.654;23.370;2024-02-26T10:16:31;12.40;;;6.90;;
36931;SDS011;22847;42.654;23.370;2024-02-26T10:18:58;11.73;;;7.00;;
36931;SDS011;22847;42.654;23.370;2024-02-26T10:21:23;11.50;;;7.88;;
36931;SDS011;22847;42.654;23.370;2024-02-26T10:23:49;13.68;;;7.05;;
36931;SDS011;22847;42.654;23.370;2024-02-26T10:26:18;10.35;;;6.93;;
36931;SDS011;22847;42.654;23.370;2024-02-26T10:28:45;9.60;;;6.22;;
36931;SDS011;22847;42.654;23.370;2024-02-26T10:31:11;10.85;;;6.28;;
36931;SDS011;22847;42.654;23.370;2024-02-26T10:33:37;12.50;;;6.53;;
36931;SDS011;22847;42.654;23.370;2024-02-26T10:36:04;11.90;;;6.57;;
36931;SDS011;22847;42.654;23.370;2024-02-26T10:38:30;10.07;;;5.88;;
36931;SDS011;22847;42.654;23.370;2024-02-26T10:40:57;13.57;;;6.95;;
36931;SDS011;22847;42.654;23.370;2024-02-26T10:43:23;7.80;;;5.70;;
36931;SDS011;22847;42.654;23.370;2024-02-26T10:45:48;10.13;;;5.88;;
36931;SDS011;22847;42.654;23.370;2024-02-26T10:48:14;12.50;;;6.00;;
36931;SDS011;22847;42.654;23.370;2024-02-26T10:50:40;13.38;;;6.65;;
36931;SDS011;22847;42.654;23.370;2024-02-26T10:53:07;13.27;;;6.28;;
36931;SDS011;22847;42.654;23.370;2024-02-26T10:55:41;9.00;;;6.25;;
36931;SDS011;22847;42.654;23.370;2024-02-26T10:58:11;10.43;;;6.25;;
36931;SDS011;22847;42.654;23.370;2024-02-26T11:00:39;10.60;;;6.13;;
36931;SDS011;22847;42.654;23.370;2024-02-26T11:03:05;9.73;;;6.40;;
36931;SDS011;22847;42.654;23.370;2024-02-26T11:05:33;8.68;;;6.22;;
36931;SDS011;22847;42.654;23.370;2024-02-26T11:08:00;9.80;;;6.03;;
36931;SDS011;22847;42.654;23.370;2024-02-26T11:10:26;9.10;;;6.32;;
36931;SDS011;22847;42.654;23.370;2024-02-26T11:12:55;9.80;;;6.55;;
36931;SDS011;22847;42.654;23.370;2024-02-26T11:15:23;10.60;;;6.03;;
36931;SDS011;22847;42.654;23.370;2024-02-26T11:17:49;7.72;;;5.72;;
36931;SDS011;22847;42.654;23.370;2024-02-26T11:20:17;9.45;;;5.95;;
36931;SDS011;22847;42.654;23.370;2024-02-26T11:22:45;9.95;;;5.78;;
36931;SDS011;22847;42.654;23.370;2024-02-26T11:25:10;11.05;;;5.50;;
36931;SDS011;22847;42.654;23.370;2024-02-26T11:27:42;11.20;;;6.50;;
36931;SDS011;22847;42.654;23.370;2024-02-26T11:30:10;12.07;;;6.88;;
36931;SDS011;22847;42.654;23.370;2024-02-26T11:32:37;10.55;;;5.93;;
36931;SDS011;22847;42.654;23.370;2024-02-26T11:35:06;10.73;;;5.50;;
36931;SDS011;22847;42.654;23.370;2024-02-26T11:37:33;13.55;;;6.57;;
36931;SDS011;22847;42.654;23.370;2024-02-26T11:39:59;13.07;;;5.30;;
36931;SDS011;22847;42.654;23.370;2024-02-26T11:42:27;12.80;;;6.70;;
36931;SDS011;22847;42.654;23.370;2024-02-26T11:44:56;11.05;;;5.80;;
36931;SDS011;22847;42.654;23.370;2024-02-26T11:47:26;11.73;;;6.20;;
36931;SDS011;22847;42.654;23.370;2024-02-26T11:49:52;11.07;;;6.20;;
36931;SDS011;22847;42.654;23.370;2024-02-26T11:52:17;11.52;;;5.57;;
36931;SDS011;22847;42.654;23.370;2024-02-26T11:54:44;9.43;;;5.57;;
36931;SDS011;22847;42.654;23.370;2024-02-26T11:57:20;10.18;;;5.35;;
36931;SDS011;22847;42.654;23.370;2024-02-26T11:59:49;9.65;;;5.43;;
36931;SDS011;22847;42.654;23.370;2024-02-26T12:05:06;10.02;;;5.38;;
36931;SDS011;22847;42.654;23.370;2024-02-26T12:07:34;11.07;;;6.05;;
36931;SDS011;22847;42.654;23.370;2024-02-26T12:10:14;9.10;;;5.82;;
36931;SDS011;22847;42.654;23.370;2024-02-26T12:12:41;7.60;;;4.82;;
36931;SDS011;22847;42.654;23.370;2024-02-26T12:15:07;12.15;;;6.18;;
36931;SDS011;22847;42.654;23.370;2024-02-26T12:17:33;10.35;;;5.53;;
36931;SDS011;22847;42.654;23.370;2024-02-26T12:20:10;9.95;;;4.88;;
36931;SDS011;22847;42.654;23.370;2024-02-26T12:22:37;8.18;;;4.68;;
36931;SDS011;22847;42.654;23.370;2024-02-26T12:25:08;10.20;;;5.10;;
36931;SDS011;22847;42.654;23.370;2024-02-26T12:27:34;15.00;;;5.18;;
36931;SDS011;22847;42.654;23.370;2024-02-26T12:30:00;10.65;;;5.57;;
36931;SDS011;22847;42.654;23.370;2024-02-26T12:32:28;8.15;;;5.03;;
36931;SDS011;22847;42.654;23.370;2024-02-26T12:34:53;9.65;;;4.82;;
36931;SDS011;22847;42.654;23.370;2024-02-26T12:37:19;9.77;;;4.78;;
36931;SDS011;22847;42.654;23.370;2024-02-26T12:39:45;8.85;;;4.63;;
36931;SDS011;22847;42.654;23.370;2024-02-26T12:42:11;15.43;;;5.15;;
36931;SDS011;22847;42.654;23.370;2024-02-26T12:44:37;12.05;;;5.47;;
36931;SDS011;22847;42.654;23.370;2024-02-26T12:47:03;11.25;;;5.15;;
36931;SDS011;22847;42.654;23.370;2024-02-26T12:49:29;11.27;;;5.82;;
36931;SDS011;22847;42.654;23.370;2024-02-26T12:51:55;7.75;;;4.68;;
36931;SDS011;22847;42.654;23.370;2024-02-26T12:54:27;7.93;;;4.63;;
36931;SDS011;22847;42.654;23.370;2024-02-26T12:57:00;12.27;;;4.85;;
36931;SDS011;22847;42.654;23.370;2024-02-26T12:59:27;15.38;;;5.53;;
36931;SDS011;22847;42.654;23.370;2024-02-26T13:01:53;8.63;;;5.05;;
36931;SDS011;22847;42.654;23.370;2024-02-26T13:04:19;9.00;;;4.72;;
36931;SDS011;22847;42.654;23.370;2024-02-26T13:06:44;8.80;;;5.22;;
36931;SDS011;22847;42.654;23.370;2024-02-26T13:09:12;9.75;;;6.10;;
36931;SDS011;22847;42.654;23.370;2024-02-26T13:11:42;7.88;;;5.20;;
36931;SDS011;22847;42.654;23.370;2024-02-26T13:14:07;12.85;;;4.80;;
36931;SDS011;22847;42.654;23.370;2024-02-26T13:16:33;11.75;;;5.10;;
36931;SDS011;22847;42.654;23.370;2024-02-26T13:19:09;9.02;;;5.07;;
36931;SDS011;22847;42.654;23.370;2024-02-26T13:21:35;11.25;;;5.15;;
36931;SDS011;22847;42.654;23.370;2024-02-26T13:24:00;12.05;;;4.95;;
36931;SDS011;22847;42.654;23.370;2024-02-26T13:26:26;8.35;;;4.47;;
36931;SDS011;22847;42.654;23.370;2024-02-26T13:29:01;7.72;;;4.10;;
36931;SDS011;22847;42.654;23.370;2024-02-26T13:31:28;10.50;;;4.70;;
36931;SDS011;22847;42.654;23.370;2024-02-26T13:33:54;9.80;;;5.63;;
36931;SDS011;22847;42.654;23.370;2024-02-26T13:36:21;9.57;;;4.68;;
36931;SDS011;22847;42.654;23.370;2024-02-26T13:38:53;9.95;;;4.60;;
36931;SDS011;22847;42.654;23.370;2024-02-26T13:41:20;10.80;;;5.35;;
36931;SDS011;22847;42.654;23.370;2024-02-26T13:43:46;9.73;;;4.60;;
36931;SDS011;22847;42.654;23.370;2024-02-26T13:46:12;10.27;;;4.30;;
36931;SDS011;22847;42.654;23.370;2024-02-26T13:48:40;7.75;;;4.15;;
36931;SDS011;22847;42.654;23.370;2024-02-26T13:51:06;12.90;;;4.55;;
36931;SDS011;22847;42.654;23.370;2024-02-26T13:53:32;11.32;;;4.57;;
36931;SDS011;22847;42.654;23.370;2024-02-26T13:55:57;11.55;;;4.85;;
36931;SDS011;22847;42.654;23.370;2024-02-26T13:58:26;10.43;;;4.65;;
36931;SDS011;22847;42.654;23.370;2024-02-26T14:00:55;9.65;;;4.30;;
36931;SDS011;22847;42.654;23.370;2024-02-26T14:03:21;9.70;;;4.97;;
36931;SDS011;22847;42.654;23.370;2024-02-26T14:05:47;9.27;;;4.00;;
36931;SDS011;22847;42.654;23.370;2024-02-26T14:08:12;7.10;;;4.43;;
36931;SDS011;22847;42.654;23.370;2024-02-26T14:10:38;12.57;;;4.15;;
36931;SDS011;22847;42.654;23.370;2024-02-26T14:13:04;11.20;;;4.82;;
36931;SDS011;22847;42.654;23.370;2024-02-26T14:15:30;8.60;;;4.45;;